sensor_id;sensor_type;location;lat;lon;timestamp;temperature;humidity
3736;DHT22;1883;48.202;16.310;2023-03-05T01:15:40;2.80;66.70
3736;DHT22;1883;48.202;16.310;2023-03-05T01:18:07;2.80;66.70
3736;DHT22;1883;48.202;16.310;2023-03-05T01:20:34;2.80;66.70
3736;DHT22;1883;48.202;16.310;2023-03-05T01:23:01;2.80;66.70
3736;DHT22;1883;48.202;16.310;2023-03-05T01:25:28;2.80;66.60
3736;DHT22;1883;48.202;16.310;2023-03-05T01:27:55;2.90;66.70
3736;DHT22;1883;48.202;16.310;2023-03-05T01:30:23;2.80;66.70
3736;DHT22;1883;48.202;16.310;2023-03-05T01:32:51;2.80;66.70
3736;DHT22;1883;48.202;16.310;2023-03-05T02:10:24;2.80;66.60
3736;DHT22;1883;48.202;16.310;2023-03-05T02:12:53;2.90;66.50
3736;DHT22;1883;48.202;16.310;2023-03-05T02:15:22;2.80;66.60
3736;DHT22;1883;48.202;16.310;2023-03-05T02:17:49;2.90;66.50
3736;DHT22;1883;48.202;16.310;2023-03-05T02:20:20;2.80;66.40
3736;DHT22;1883;48.202;16.310;2023-03-05T02:22:48;2.80;66.40
3736;DHT22;1883;48.202;16.310;2023-03-05T02:25:18;2.80;66.30
3736;DHT22;1883;48.202;16.310;2023-03-05T02:27:52;2.80;66.20
3736;DHT22;1883;48.202;16.310;2023-03-05T02:30:20;2.80;66.20
3736;DHT22;1883;48.202;16.310;2023-03-05T02:32:47;2.80;66.00
3736;DHT22;1883;48.202;16.310;2023-03-05T02:35:15;2.80;66.20
3736;DHT22;1883;48.202;16.310;2023-03-05T02:37:42;2.80;66.10
3736;DHT22;1883;48.202;16.310;2023-03-05T02:40:12;2.80;66.10
3736;DHT22;1883;48.202;16.310;2023-03-05T02:42:40;2.70;66.10
3736;DHT22;1883;48.202;16.310;2023-03-05T02:45:09;2.80;66.10
3736;DHT22;1883;48.202;16.310;2023-03-05T02:47:36;2.80;66.20
3736;DHT22;1883;48.202;16.310;2023-03-05T02:50:04;2.80;66.20
3736;DHT22;1883;48.202;16.310;2023-03-05T02:52:32;2.80;66.20
3736;DHT22;1883;48.202;16.310;2023-03-05T02:54:59;2.80;66.20
3736;DHT22;1883;48.202;16.310;2023-03-05T02:57:27;2.90;66.30
3736;DHT22;1883;48.202;16.310;2023-03-05T02:59:54;2.90;66.20
3736;DHT22;1883;48.202;16.310;2023-03-05T03:02:21;2.80;66.20
3736;DHT22;1883;48.202;16.310;2023-03-05T03:22:03;2.90;66.30
3736;DHT22;1883;48.202;16.310;2023-03-05T03:24:31;2.90;66.30
3736;DHT22;1883;48.202;16.310;2023-03-05T03:26:58;2.90;66.30
3736;DHT22;1883;48.202;16.310;2023-03-05T03:29:26;2.90;66.30
3736;DHT22;1883;48.202;16.310;2023-03-05T03:31:53;2.90;66.20
3736;DHT22;1883;48.202;16.310;2023-03-05T03:34:20;2.90;66.20
3736;DHT22;1883;48.202;16.310;2023-03-05T03:36:48;2.90;66.20
3736;DHT22;1883;48.202;16.310;2023-03-05T03:39:17;2.90;66.20
3736;DHT22;1883;48.202;16.310;2023-03-05T03:41:47;2.80;66.10
3736;DHT22;1883;48.202;16.310;2023-03-05T03:44:14;2.90;66.20
3736;DHT22;1883;48.202;16.310;2023-03-05T03:46:44;2.90;66.10
3736;DHT22;1883;48.202;16.310;2023-03-05T03:49:15;2.90;66.10
3736;DHT22;1883;48.202;16.310;2023-03-05T03:51:42;2.90;66.10
3736;DHT22;1883;48.202;16.310;2023-03-05T04:01:56;2.90;66.00
3736;DHT22;1883;48.202;16.310;2023-03-05T04:04:24;2.90;66.00
3736;DHT22;1883;48.202;16.310;2023-03-05T04:06:53;2.90;66.00
3736;DHT22;1883;48.202;16.310;2023-03-05T04:09:20;2.90;66.00
3736;DHT22;1883;48.202;16.310;2023-03-05T04:11:47;2.90;66.00
3736;DHT22;1883;48.202;16.310;2023-03-05T04:14:14;2.90;66.00
3736;DHT22;1883;48.202;16.310;2023-03-05T04:16:42;2.90;66.00
3736;DHT22;1883;48.202;16.310;2023-03-05T04:19:10;2.90;65.90
3736;DHT22;1883;48.202;16.310;2023-03-05T04:21:37;2.90;65.90
3736;DHT22;1883;48.202;16.310;2023-03-05T04:24:05;2.90;65.90
3736;DHT22;1883;48.202;16.310;2023-03-05T04:26:33;2.90;65.90
3736;DHT22;1883;48.202;16.310;2023-03-05T04:29:00;2.90;65.90
3736;DHT22;1883;48.202;16.310;2023-03-05T04:31:27;2.90;65.80
3736;DHT22;1883;48.202;16.310;2023-03-05T04:33:53;2.90;65.80
3736;DHT22;1883;48.202;16.310;2023-03-05T04:36:22;2.90;65.80
3736;DHT22;1883;48.202;16.310;2023-03-05T04:38:49;2.90;65.70
3736;DHT22;1883;48.202;16.310;2023-03-05T04:41:16;2.90;65.70
3736;DHT22;1883;48.202;16.310;2023-03-05T04:43:43;2.80;65.70
3736;DHT22;1883;48.202;16.310;2023-03-05T04:46:10;2.90;65.70
3736;DHT22;1883;48.202;16.310;2023-03-05T04:48:37;2.90;65.70
3736;DHT22;1883;48.202;16.310;2023-03-05T04:51:04;2.80;65.60
3736;DHT22;1883;48.202;16.310;2023-03-05T04:53:33;2.80;65.60
3736;DHT22;1883;48.202;16.310;2023-03-05T04:56:00;2.80;65.60
3736;DHT22;1883;48.202;16.310;2023-03-05T04:58:27;2.80;65.60
